• Join FlightAware (Why Join?)
  • Login
  • US Flag 
10:22AM EST


 

Airport Tracker/Info


-or-


 

Live Flight TrackerFlight Track Log ✈ SWA568 ✈ 29-Apr-2013 ✈ KLAS - KONT

Flight Track Log - Related Links

Times and Time Zones

All times are in EDT time to prevent confusion due to time zone crossing. See the SWA568 flight status page for this flight to view local times or setup timezone preferences in your user account.

Time Position Orientation Groundspeed Altitude Reporting Facility
EDT Latitude Longitude Course Direction KTS MPH feet Rate Location/Type
12:01AM 36.0747 -115.2111 269° West 177 204 4,200  Level Los Angeles Center
12:02AM 36.0419 -115.2697 235° Southwest 250 288 6,600 1,980 Climbing Los Angeles Center
12:03AM 36.0153 -115.2808 199° South 258 297 7,000 360 Climbing Los Angeles Center
12:03AM 35.9689 -115.3017 200° South 272 313 7,000 240 Level Los Angeles Center
12:04AM 35.9428 -115.3072 190° South 267 307 7,300 2,220 Climbing Los Angeles Center
12:04AM 35.8911 -115.3114 184° South 281 323 9,300 2,460 Climbing Los Angeles Center
12:05AM 35.8803 -115.3125 185° South 273 314 9,900 2,580 Climbing Los Angeles Center
12:06AM 35.7697 -115.3039 176° South 313 360 13,000 3,060 Climbing Los Angeles Center
12:07AM 35.6697 -115.3114 183° South 365 420 16,200 3,120 Climbing Los Angeles Center
12:08AM 35.5969 -115.4042 226° Southwest 375 432 19,500 2,940 Climbing Los Angeles Center
12:09AM 35.5236 -115.5036 228° Southwest 387 445 22,300 2,820 Climbing Los Angeles Center
12:10AM 35.4389 -115.6178 228° Southwest 407 468 25,400 2,700 Climbing Los Angeles Center
12:11AM 35.3614 -115.7197 227° Southwest 408 470 28,000 1,260 Climbing Los Angeles Center
12:12AM 35.2850 -115.8208 227° Southwest 405 466 28,000  Level Los Angeles Center
12:13AM 35.2081 -115.9233 227° Southwest 407 468 28,000 -480 Level Los Angeles Center
12:14AM 35.1325 -116.0244 228° Southwest 404 465 27,100 -960 Descending Los Angeles Center
12:15AM 35.0553 -116.1239 227° Southwest 404 465 26,100 -1,020 Descending Los Angeles Center
12:16AM 34.9806 -116.2233 227° Southwest 399 459 25,100 -1,020 Descending Los Angeles Center
12:17AM 34.9075 -116.3189 227° Southwest 386 444 24,100 -1,020 Descending Los Angeles Center
12:18AM 34.8344 -116.4114 226° Southwest 380 437 23,100 -1,140 Descending Los Angeles Center
12:19AM 34.7486 -116.5222 227° Southwest 374 430 21,900 -1,080 Descending Los Angeles Center
12:20AM 34.6764 -116.6108 225° Southwest 369 425 20,900 -1,020 Descending Los Angeles Center
12:21AM 34.6050 -116.6969 225° Southwest 364 419 19,900 -1,260 Descending Los Angeles Center
12:22AM 34.5364 -116.7806 225° Southwest 351 404 18,400 -1,680 Descending Los Angeles Center
12:23AM 34.4694 -116.8617 225° Southwest 341 392 16,500 -1,740 Descending Los Angeles Center
12:24AM 34.4075 -116.9400 226° Southwest 326 375 14,900 -1,500 Descending Los Angeles Center
12:25AM 34.3456 -117.0136 224° Southwest 316 364 13,500 -1,320 Descending Los Angeles Center
12:26AM 34.2858 -117.0861 225° Southwest 306 352 12,200 -780 Descending Los Angeles Center
12:27AM 34.2300 -117.1531 225° Southwest 287 330 12,000 -660 Descending Los Angeles Center
12:28AM 34.1483 -117.1761 193° South 286 329 10,900 -1,440 Descending Los Angeles Center
12:29AM 34.0833 -117.2000 197° South 285 328 9,500 -900 Descending Southern California TRACON
12:30AM 34.0500 -117.2667 239° Southwest 227 261 9,300 -180 Descending Southern California TRACON
12:31AM 34.0500 -117.3333 270° West 175 201 9,200 -900 Descending Southern California TRACON
12:32AM 34.0833 -117.3667 320° Northwest 168 193 7,500 -1,680 Descending Southern California TRACON
12:33AM 34.0500 -117.4000 220° Southwest 155 178 5,900 -1,800 Descending Southern California TRACON
12:34AM 34.0500 -117.4333 270° West 158 182 3,900 -1,680 Descending Southern California TRACON
12:35AM 34.0500 -117.5000 270° West 135 155 2,300 -1,080 Descending Southern California TRACON
12:36AM 34.0500 -117.5333 270° West 130 150 1,700 -720 Descending Southern California TRACON
12:37AM 34.0500 -117.5833 270° West 129 148 1,000 -720 Descending Southern California TRACON
12:40AM 34.0500 -117.6000 270° West  Level FlightAware Approximate
12:47AM 34.0560 -117.6012 270° West  Level Estimated